Verescagino, Russia
Current Conditions -  °F | °C
As of 10:30 AM on Tuesday 27 Jan 2015 (Local Time) from USPP Reporting Station
Clear Clear  
Wind Chill: -11°   Ceiling: Unl
Heat Index:   Visibility: 6mi
Dew Point: -4°   Wind: 16mph
Humidity: 61%   Direction: 240°WSW
Pressure: 30.39"   Gusts: NA
Location:  58.08°N, 54.68°E
Report Text: USPP 270530Z 24007MPS CAVOK M14/M20 Q1029 21810355 NOSIG RMKQFE761/1014
Loading
Personal Weather Stations






























Interactive Weather Map New forecast layout! Learn more

10-Day Weather Forecast

Advertisements
Track Severe Weather on mobile